Monday, October 23, 2017, 1:14 PM EDT
Back to Local

KBID, Block Island, Block Island State Airport

Location: Block Island, RI, United States Lat: 41.167
Local Time: 1:14 PM EDT (17:14 GMT) Lon: -71.567
Time Zone: US/Eastern Elev: 108 ft

Show me the last for .
Show Decoded

2017-10-23 12:56 METAR KBID 231656Z AUTO 15012KT 10SM CLR 21/18 A3028 RMK AO2 SLP258 T02060178 =
2017-10-23 11:56 METAR KBID 231556Z AUTO 16008KT 10SM FEW046 19/17 A3032 RMK AO2 SLP269 T01940172
                 =
2017-10-23 10:56 METAR KBID 231456Z AUTO 16011KT 10SM SCT046 19/17 A3034 RMK AO2 SLP276 T01890167
                 58009 =
2017-10-23 09:56 METAR KBID 231356Z AUTO 16008KT 10SM CLR 19/17 A3035 RMK AO2 SLP282 T01890172 =
2017-10-23 08:56 METAR KBID 231256Z AUTO 15008KT 10SM CLR 18/17 A3036 RMK AO2 SLP284 T01780167 =
2017-10-23 07:56 METAR KBID 231156Z AUTO 16008KT 10SM CLR 17/16 A3036 RMK AO2 SLP285 7////
                 T01670161 10167 20144 51002 =
2017-10-23 06:56 METAR KBID 231056Z AUTO 16007KT 10SM CLR 16/15 A3036 RMK AO2 SLP285 T01560150 =
2017-10-23 05:56 METAR KBID 230956Z AUTO 16006KT 10SM CLR 16/15 A3036 RMK AO2 SLP284 T01560150 =
2017-10-23 04:56 METAR KBID 230856Z AUTO 17005KT 10SM CLR 15/15 A3036 RMK AO2 SLP283 T01500150
                 58012 =
2017-10-23 03:56 METAR KBID 230756Z AUTO 17006KT 10SM CLR 15/14 A3037 RMK AO2 SLP288 T01500144 =
2017-10-23 02:56 METAR KBID 230656Z AUTO 19006KT 10SM CLR 15/14 A3039 RMK AO2 SLP292 T01500144 =
2017-10-23 01:56 METAR KBID 230556Z AUTO 18007KT 10SM CLR 15/14 A3039 RMK AO2 SLP295 T01500139
                 10161 20150 58007 =
2017-10-23 00:56 METAR KBID 230456Z AUTO 18007KT 10SM CLR 15/15 A3040 RMK AO2 SLP298 T01500150 =
2017-10-22 23:56 METAR KBID 230356Z AUTO 17006KT 10SM CLR 15/15 A3041 RMK AO2 SLP301 T01500150
                 402220128 =
2017-10-22 22:56 METAR KBID 230256Z AUTO 20005KT 10SM CLR 16/15 A3041 RMK AO2 SLP302 T01560150
                 50006 =
2017-10-22 21:56 METAR KBID 230156Z AUTO 20006KT 10SM CLR 16/15 A3042 RMK AO2 SLP304 T01610150 =
2017-10-22 20:56 METAR KBID 230056Z AUTO 21008KT 10SM CLR 16/15 A3040 RMK AO2 SLP299 T01610150 =
2017-10-22 19:56 METAR KBID 222356Z AUTO 21009KT 10SM CLR 16/15 A3039 RMK AO2 SLP296 T01610150
                 10211 20161 55000 =
2017-10-22 18:56 METAR KBID 222256Z AUTO 22007KT 10SM CLR 17/15 A3039 RMK AO2 SLP295 T01670150 =
2017-10-22 17:56 METAR KBID 222156Z AUTO 22008KT 10SM CLR 17/15 A3039 RMK AO2 SLP296 T01720150 =
2017-10-22 16:56 METAR KBID 222056Z AUTO 23011KT 10SM CLR 19/15 A3039 RMK AO2 SLP295 T01940150
                 55000 =
2017-10-22 15:56 METAR KBID 221956Z AUTO 23010KT 10SM CLR 20/16 A3039 RMK AO2 SLP294 T02000156 =
2017-10-22 14:56 METAR KBID 221856Z AUTO 23009KT 10SM CLR 21/15 A3039 RMK AO2 SLP294 T02060150 =
2017-10-22 13:56 METAR KBID 221756Z AUTO 24009KT 10SM CLR 22/15 A3039 RMK AO2 SLP295 6////
                 T02170150 10222 20150 57008 =

Support USWX by starting your Amazon purchase here.